createdAt,value
2018-04-30T00:00:51.053Z,987.01
2018-04-30T00:01:51.056Z,986.98
2018-04-30T00:02:51.117Z,986.89
2018-04-30T00:03:50.990Z,986.95
2018-04-30T00:04:51.057Z,986.96
2018-04-30T00:05:50.986Z,986.90
2018-04-30T00:06:51.056Z,986.85
2018-04-30T00:07:50.985Z,986.87
2018-04-30T00:08:51.064Z,986.80
2018-04-30T00:09:51.051Z,986.75
2018-04-30T00:10:51.052Z,986.80
2018-04-30T00:11:50.982Z,986.78
2018-04-30T00:12:51.051Z,986.71
2018-04-30T00:13:50.979Z,986.69
2018-04-30T00:14:51.052Z,986.59
2018-04-30T00:15:50.989Z,986.57
2018-04-30T00:16:51.004Z,986.52
2018-04-30T00:17:50.965Z,986.51
2018-04-30T00:18:50.984Z,986.44
2018-04-30T00:19:51.029Z,986.43
2018-04-30T00:20:50.979Z,986.34
2018-04-30T00:21:51.031Z,986.35
2018-04-30T00:22:51.071Z,986.35
2018-04-30T00:23:50.985Z,986.30
2018-04-30T00:24:51.065Z,986.25
2018-04-30T00:25:51.092Z,986.23
2018-04-30T00:26:51.081Z,986.23
2018-04-30T00:27:51.049Z,986.17
2018-04-30T00:28:50.994Z,986.13
2018-04-30T00:29:51.098Z,986.10
2018-04-30T00:30:51.066Z,986.06
2018-04-30T00:31:51.061Z,986.01
2018-04-30T00:32:51.060Z,986.03
2018-04-30T00:33:50.980Z,985.96
2018-04-30T00:34:51.011Z,985.91
2018-04-30T00:35:51.064Z,985.93
2018-04-30T00:36:51.071Z,985.91
2018-04-30T00:37:51.076Z,985.88
2018-04-30T00:38:51.069Z,985.87
2018-04-30T00:39:50.995Z,985.85
2018-04-30T00:40:51.108Z,985.85
2018-04-30T00:41:51.019Z,985.86
2018-04-30T00:42:51.068Z,985.83
2018-04-30T00:43:51.032Z,985.80
2018-04-30T00:44:51.070Z,985.82
2018-04-30T00:45:51.000Z,985.80
2018-04-30T00:46:51.073Z,985.78
2018-04-30T00:47:51.074Z,985.79
2018-04-30T00:48:51.005Z,985.76
2018-04-30T00:49:51.160Z,985.78
2018-04-30T00:50:51.140Z,985.80
2018-04-30T00:51:51.104Z,985.79
2018-04-30T00:52:51.055Z,985.81
2018-04-30T00:53:51.082Z,985.75
2018-04-30T00:54:51.020Z,985.77
2018-04-30T00:55:51.119Z,985.76
2018-04-30T00:56:51.084Z,985.71
2018-04-30T00:57:51.109Z,985.67
2018-04-30T00:58:51.022Z,985.63
2018-04-30T00:59:51.007Z,985.65
2018-04-30T01:00:51.114Z,985.68
2018-04-30T01:01:51.089Z,985.61
2018-04-30T01:02:51.057Z,985.58
2018-04-30T01:03:51.090Z,985.63
2018-04-30T01:04:51.028Z,985.61
2018-04-30T01:05:50.995Z,985.60
2018-04-30T01:06:51.122Z,985.62
2018-04-30T01:07:50.992Z,985.62
2018-04-30T01:08:51.118Z,985.62
2018-04-30T01:09:51.112Z,985.58
2018-04-30T01:10:50.968Z,985.57
2018-04-30T01:11:51.081Z,985.55
2018-04-30T01:12:51.085Z,985.55
2018-04-30T01:13:51.018Z,985.53
2018-04-30T01:14:51.089Z,985.54
2018-04-30T01:15:51.056Z,985.49
2018-04-30T01:16:51.020Z,985.48
2018-04-30T01:17:51.005Z,985.46
2018-04-30T01:18:51.004Z,985.45
2018-04-30T01:19:51.008Z,985.41
2018-04-30T01:20:51.074Z,985.42
2018-04-30T01:21:51.059Z,985.42
2018-04-30T01:22:51.038Z,985.40
2018-04-30T01:23:51.019Z,985.36
2018-04-30T01:24:51.127Z,985.37
2018-04-30T01:25:51.063Z,985.43
2018-04-30T01:26:51.081Z,985.40
2018-04-30T01:27:51.067Z,985.38
2018-04-30T01:28:51.137Z,985.33
2018-04-30T01:29:51.125Z,985.33
2018-04-30T01:30:51.110Z,985.27
2018-04-30T01:31:51.038Z,985.27
2018-04-30T01:32:51.113Z,985.32
2018-04-30T01:33:51.041Z,985.24
2018-04-30T01:34:51.044Z,985.26
2018-04-30T01:35:51.114Z,985.33
2018-04-30T01:36:51.113Z,985.27
2018-04-30T01:37:51.108Z,985.25
2018-04-30T01:38:51.044Z,985.21
2018-04-30T01:39:51.115Z,985.19
2018-04-30T01:40:51.136Z,985.14
2018-04-30T01:41:51.067Z,985.14
2018-04-30T01:42:51.158Z,985.12
2018-04-30T01:43:51.092Z,985.07
2018-04-30T01:44:51.016Z,985.05
2018-04-30T01:45:51.121Z,985.08
2018-04-30T01:46:51.140Z,985.09
2018-04-30T01:47:51.092Z,985.12
2018-04-30T01:48:51.163Z,985.00
2018-04-30T01:49:51.075Z,985.00
2018-04-30T01:50:51.114Z,984.98
2018-04-30T01:51:51.040Z,984.98
2018-04-30T01:52:51.115Z,985.01
2018-04-30T01:53:51.123Z,984.99
2018-04-30T01:54:51.041Z,985.02
2018-04-30T01:55:51.048Z,985.08
2018-04-30T01:56:51.119Z,985.08
2018-04-30T01:57:50.994Z,985.04
2018-04-30T01:58:51.114Z,985.04
2018-04-30T01:59:51.120Z,985.01
2018-04-30T02:00:51.089Z,984.95
2018-04-30T02:01:51.033Z,985.01
2018-04-30T02:02:51.053Z,984.99
2018-04-30T02:03:51.116Z,984.99
2018-04-30T02:04:51.123Z,984.90
2018-04-30T02:05:51.074Z,984.89
2018-04-30T02:06:51.051Z,984.92
2018-04-30T02:07:51.037Z,984.94
2018-04-30T02:08:51.077Z,985.00
2018-04-30T02:09:51.126Z,984.99
2018-04-30T02:10:51.100Z,984.96
2018-04-30T02:11:51.160Z,984.88
2018-04-30T02:12:51.131Z,984.92
2018-04-30T02:13:51.063Z,984.93
2018-04-30T02:14:51.133Z,984.91
2018-04-30T02:15:51.147Z,984.90
2018-04-30T02:16:51.092Z,984.96
2018-04-30T02:17:51.163Z,984.98
2018-04-30T02:18:51.074Z,985.00
2018-04-30T02:19:51.038Z,985.05
2018-04-30T02:20:51.113Z,985.06
2018-04-30T02:21:51.116Z,985.08
2018-04-30T02:22:51.170Z,985.11
2018-04-30T02:23:51.136Z,985.14
2018-04-30T02:24:51.067Z,985.16
2018-04-30T02:25:51.114Z,985.12
2018-04-30T02:26:51.142Z,985.11
2018-04-30T02:27:51.168Z,985.13
2018-04-30T02:28:51.114Z,985.17
2018-04-30T02:29:51.088Z,985.10
2018-04-30T02:30:51.169Z,985.12
2018-04-30T02:31:51.178Z,985.13
2018-04-30T02:32:51.145Z,985.11
2018-04-30T02:33:51.059Z,985.12
2018-04-30T02:34:51.090Z,985.15
2018-04-30T02:35:51.071Z,985.13
2018-04-30T02:36:51.114Z,985.11
2018-04-30T02:37:51.066Z,985.09
2018-04-30T02:38:51.109Z,985.04
2018-04-30T02:39:51.106Z,985.04
2018-04-30T02:40:51.130Z,985.06
2018-04-30T02:41:51.093Z,985.05
2018-04-30T02:42:51.116Z,985.03
2018-04-30T02:43:51.177Z,985.03
2018-04-30T02:44:51.155Z,985.05
2018-04-30T02:45:51.182Z,985.04
2018-04-30T02:46:51.141Z,985.04
2018-04-30T02:47:51.190Z,984.99
2018-04-30T02:48:51.187Z,985.00
2018-04-30T02:49:51.187Z,984.97
2018-04-30T02:50:51.089Z,984.90
2018-04-30T02:51:51.090Z,984.88
2018-04-30T02:52:51.166Z,984.92
2018-04-30T02:53:51.166Z,984.95
2018-04-30T02:54:51.174Z,984.94
2018-04-30T02:55:51.166Z,984.92
2018-04-30T02:56:51.094Z,984.93
2018-04-30T02:57:51.170Z,984.96
2018-04-30T02:58:51.179Z,985.02
2018-04-30T02:59:51.167Z,984.98
2018-04-30T03:00:51.191Z,985.05
2018-04-30T03:01:51.128Z,985.05
2018-04-30T03:02:51.224Z,985.02
2018-04-30T03:03:51.198Z,985.03
2018-04-30T03:04:51.145Z,985.06
2018-04-30T03:05:51.194Z,985.06
2018-04-30T03:06:51.168Z,985.03
2018-04-30T03:07:51.200Z,985.06
2018-04-30T03:08:51.233Z,985.07
2018-04-30T03:09:51.193Z,985.04
2018-04-30T03:10:51.175Z,985.03
2018-04-30T03:11:51.104Z,984.99
2018-04-30T03:12:51.105Z,985.01
2018-04-30T03:13:51.180Z,985.02
2018-04-30T03:14:51.108Z,985.05
2018-04-30T03:15:51.120Z,985.05
2018-04-30T03:16:51.179Z,985.08
2018-04-30T03:17:51.110Z,985.10
2018-04-30T03:18:51.182Z,985.09
2018-04-30T03:19:51.108Z,985.11
2018-04-30T03:20:51.183Z,985.07
2018-04-30T03:21:51.184Z,985.03
2018-04-30T03:22:51.127Z,985.07
2018-04-30T03:23:51.113Z,985.06
2018-04-30T03:24:51.183Z,985.05
2018-04-30T03:25:51.186Z,985.11
2018-04-30T03:26:51.185Z,985.09
2018-04-30T03:27:51.185Z,985.06
2018-04-30T03:28:51.116Z,985.04
2018-04-30T03:29:51.195Z,985.02
2018-04-30T03:30:51.168Z,985.06
2018-04-30T03:31:51.144Z,985.05
2018-04-30T03:32:51.211Z,985.05
2018-04-30T03:33:51.161Z,985.05
2018-04-30T03:34:51.191Z,985.05
2018-04-30T03:35:51.167Z,985.04
2018-04-30T03:36:51.196Z,985.07
2018-04-30T03:37:51.252Z,985.08
2018-04-30T03:38:51.211Z,985.06
2018-04-30T03:39:51.158Z,985.03
2018-04-30T03:40:51.177Z,985.04
2018-04-30T03:41:51.090Z,985.01
2018-04-30T03:42:51.127Z,984.93
2018-04-30T03:43:51.174Z,984.98
2018-04-30T03:44:51.132Z,984.91
2018-04-30T03:45:51.150Z,984.88
2018-04-30T03:46:51.087Z,984.81
2018-04-30T03:47:51.091Z,984.81
2018-04-30T03:48:51.183Z,984.83
2018-04-30T03:49:51.179Z,984.82
2018-04-30T03:50:51.108Z,984.83
2018-04-30T03:51:51.190Z,984.82
2018-04-30T03:52:51.103Z,984.83
2018-04-30T03:53:51.077Z,984.84
2018-04-30T03:54:51.188Z,984.86
2018-04-30T03:55:51.191Z,984.85
2018-04-30T03:56:51.224Z,984.90
2018-04-30T03:57:51.182Z,985.02
2018-04-30T03:58:51.147Z,985.06
2018-04-30T03:59:51.140Z,985.10
2018-04-30T04:00:51.214Z,985.11
2018-04-30T04:01:51.220Z,985.11
2018-04-30T04:02:51.133Z,985.20
2018-04-30T04:03:51.213Z,985.18
2018-04-30T04:04:51.210Z,985.23
2018-04-30T04:05:51.138Z,985.22
2018-04-30T04:06:51.140Z,985.23
2018-04-30T04:07:51.141Z,985.20
2018-04-30T04:08:51.211Z,985.19
2018-04-30T04:09:51.142Z,985.20
2018-04-30T04:10:51.142Z,985.25
2018-04-30T04:11:51.178Z,985.24
2018-04-30T04:12:51.129Z,985.23
2018-04-30T04:13:51.209Z,985.25
2018-04-30T04:14:51.210Z,985.23
2018-04-30T04:15:51.234Z,985.29
2018-04-30T04:16:51.176Z,985.29
2018-04-30T04:17:51.194Z,985.34
2018-04-30T04:18:51.136Z,985.40
2018-04-30T04:19:51.181Z,985.40
2018-04-30T04:20:51.243Z,985.35
2018-04-30T04:21:51.212Z,985.37
2018-04-30T04:22:51.188Z,985.43
2018-04-30T04:23:51.154Z,985.38
2018-04-30T04:24:51.271Z,985.42
2018-04-30T04:25:51.176Z,985.36
2018-04-30T04:26:51.233Z,985.37
2018-04-30T04:27:51.124Z,985.36
2018-04-30T04:28:51.254Z,985.37
2018-04-30T04:29:51.138Z,985.41
2018-04-30T04:30:51.123Z,985.43
2018-04-30T04:31:51.217Z,985.49
2018-04-30T04:32:51.219Z,985.52
2018-04-30T04:33:51.197Z,985.54
2018-04-30T04:34:51.248Z,985.51
2018-04-30T04:35:51.262Z,985.48
2018-04-30T04:36:51.254Z,985.50
2018-04-30T04:37:51.256Z,985.53
2018-04-30T04:38:51.180Z,985.60
2018-04-30T04:39:51.194Z,985.63
2018-04-30T04:40:51.194Z,985.65
2018-04-30T04:41:51.253Z,985.65
2018-04-30T04:42:51.261Z,985.66
2018-04-30T04:43:51.206Z,985.64
2018-04-30T04:44:51.147Z,985.64
2018-04-30T04:45:51.307Z,985.68
2018-04-30T04:46:51.192Z,985.64
2018-04-30T04:47:51.254Z,985.70
2018-04-30T04:48:51.230Z,985.70
2018-04-30T04:49:51.273Z,985.66
2018-04-30T04:50:51.208Z,985.66
2018-04-30T04:51:51.194Z,985.68
2018-04-30T04:52:51.264Z,985.69
2018-04-30T04:53:51.203Z,985.66
2018-04-30T04:54:51.230Z,985.68
2018-04-30T04:55:51.277Z,985.70
2018-04-30T04:56:51.211Z,985.70
2018-04-30T04:57:51.205Z,985.71
2018-04-30T04:58:51.210Z,985.74
2018-04-30T04:59:51.196Z,985.75
2018-04-30T05:00:51.239Z,985.77
2018-04-30T05:01:51.217Z,985.80
2018-04-30T05:02:51.196Z,985.86
2018-04-30T05:03:51.209Z,985.83
2018-04-30T05:04:51.269Z,985.85
2018-04-30T05:05:51.179Z,985.87
2018-04-30T05:06:51.147Z,985.89
2018-04-30T05:07:51.303Z,985.93
2018-04-30T05:08:51.205Z,985.94
2018-04-30T05:09:51.163Z,985.97
2018-04-30T05:10:51.314Z,985.94
2018-04-30T05:11:51.245Z,985.92
2018-04-30T05:12:51.146Z,985.98
2018-04-30T05:13:51.247Z,985.98
2018-04-30T05:14:51.269Z,985.94
2018-04-30T05:15:51.243Z,986.02
2018-04-30T05:16:51.275Z,986.04
2018-04-30T05:17:51.250Z,986.05
2018-04-30T05:18:51.279Z,986.05
2018-04-30T05:19:51.267Z,986.14
2018-04-30T05:20:51.178Z,986.15
2018-04-30T05:21:51.244Z,986.19
2018-04-30T05:22:51.278Z,986.23
2018-04-30T05:23:51.171Z,986.30
2018-04-30T05:24:51.218Z,986.28
2018-04-30T05:25:51.230Z,986.33
2018-04-30T05:26:51.229Z,986.31
2018-04-30T05:27:51.333Z,986.40
2018-04-30T05:28:51.227Z,986.32
2018-04-30T05:29:51.236Z,986.36
2018-04-30T05:30:51.220Z,986.32
2018-04-30T05:31:51.235Z,986.35
2018-04-30T05:32:51.230Z,986.36
2018-04-30T05:33:51.294Z,986.42
2018-04-30T05:34:51.182Z,986.41
2018-04-30T05:35:51.195Z,986.42
2018-04-30T05:36:51.164Z,986.43
2018-04-30T05:37:51.182Z,986.51
2018-04-30T05:38:51.243Z,986.44
2018-04-30T05:39:51.230Z,986.43
2018-04-30T05:40:51.265Z,986.50
2018-04-30T05:41:51.197Z,986.47
2018-04-30T05:42:51.200Z,986.53
2018-04-30T05:43:51.204Z,986.53
2018-04-30T05:44:51.223Z,986.51
2018-04-30T05:45:51.270Z,986.55
2018-04-30T05:46:51.198Z,986.52
2018-04-30T05:47:51.202Z,986.63
2018-04-30T05:48:51.269Z,986.64
2018-04-30T05:49:51.209Z,986.64
2018-04-30T05:50:51.264Z,986.59
2018-04-30T05:51:51.236Z,986.64
2018-04-30T05:52:51.307Z,986.63
2018-04-30T05:53:51.241Z,986.61
2018-04-30T05:54:51.214Z,986.67
2018-04-30T05:55:51.247Z,986.63
2018-04-30T05:56:51.294Z,986.67
2018-04-30T05:57:51.273Z,986.66
2018-04-30T05:58:51.344Z,986.67
2018-04-30T05:59:51.244Z,986.70
2018-04-30T06:00:51.278Z,986.75
2018-04-30T06:01:51.210Z,986.77
2018-04-30T06:02:51.282Z,986.80
2018-04-30T06:03:51.210Z,986.82
2018-04-30T06:04:51.210Z,986.84
2018-04-30T06:05:51.280Z,986.88
2018-04-30T06:06:51.233Z,986.95
2018-04-30T06:07:51.280Z,986.95
2018-04-30T06:08:51.210Z,986.93
2018-04-30T06:09:51.285Z,986.95
2018-04-30T06:10:51.271Z,987.00
2018-04-30T06:11:51.223Z,986.95
2018-04-30T06:12:51.255Z,987.09
2018-04-30T06:13:51.265Z,987.06
2018-04-30T06:14:51.187Z,987.11
2018-04-30T06:15:51.245Z,987.18
2018-04-30T06:16:51.188Z,987.18
2018-04-30T06:17:51.226Z,987.26
2018-04-30T06:18:51.186Z,987.23
2018-04-30T06:19:51.270Z,987.24
2018-04-30T06:20:51.288Z,987.34
2018-04-30T06:21:51.292Z,987.22
2018-04-30T06:22:51.311Z,987.26
2018-04-30T06:23:51.318Z,987.25
2018-04-30T06:24:51.291Z,987.20
2018-04-30T06:25:51.229Z,987.36
2018-04-30T06:26:51.332Z,987.25
2018-04-30T06:27:51.223Z,987.35
2018-04-30T06:28:51.232Z,987.48
2018-04-30T06:29:51.175Z,987.37
2018-04-30T06:30:51.317Z,987.43
2018-04-30T06:31:51.336Z,987.55
2018-04-30T06:32:51.323Z,987.40
2018-04-30T06:33:51.277Z,987.43
2018-04-30T06:34:51.275Z,987.46
2018-04-30T06:35:51.360Z,987.50
2018-04-30T06:36:51.317Z,987.55
2018-04-30T06:37:51.278Z,987.47
2018-04-30T06:38:51.280Z,987.58
2018-04-30T06:39:51.224Z,987.56
2018-04-30T06:40:51.328Z,987.65
2018-04-30T06:41:51.263Z,987.63
2018-04-30T06:42:51.273Z,987.62
2018-04-30T06:43:51.266Z,987.68
2018-04-30T06:44:51.275Z,987.75
2018-04-30T06:45:51.271Z,987.68
2018-04-30T06:46:51.282Z,987.75
2018-04-30T06:47:51.212Z,987.79
2018-04-30T06:48:51.326Z,987.81
2018-04-30T06:49:51.341Z,987.89
2018-04-30T06:50:51.301Z,987.87
2018-04-30T06:51:51.309Z,987.76
2018-04-30T06:52:51.311Z,987.91
2018-04-30T06:53:51.229Z,987.94
2018-04-30T06:54:51.327Z,988.00
2018-04-30T06:55:51.272Z,987.98
2018-04-30T06:56:51.282Z,988.04
2018-04-30T06:57:51.218Z,988.09
2018-04-30T06:58:51.237Z,988.12
2018-04-30T06:59:51.291Z,988.11
2018-04-30T07:00:51.283Z,988.16
2018-04-30T07:01:51.315Z,988.16
2018-04-30T07:02:51.316Z,988.13
2018-04-30T07:03:51.216Z,988.09
2018-04-30T07:04:51.355Z,988.18
2018-04-30T07:05:51.239Z,988.12
2018-04-30T07:06:51.300Z,988.19
2018-04-30T07:07:51.296Z,988.19
2018-04-30T07:08:51.281Z,988.21
2018-04-30T07:09:51.380Z,988.32
2018-04-30T07:10:51.299Z,988.29
2018-04-30T07:11:51.323Z,988.27
2018-04-30T07:12:51.254Z,988.32
2018-04-30T07:13:51.336Z,988.32
2018-04-30T07:14:51.258Z,988.32
2018-04-30T07:15:51.329Z,988.38
2018-04-30T07:16:51.255Z,988.36
2018-04-30T07:17:51.327Z,988.32
2018-04-30T07:18:51.258Z,988.34
2018-04-30T07:19:51.325Z,988.35
2018-04-30T07:20:51.259Z,988.39
2018-04-30T07:21:51.332Z,988.44
2018-04-30T07:22:51.336Z,988.44
2018-04-30T07:23:51.273Z,988.44
2018-04-30T07:24:51.328Z,988.44
2018-04-30T07:25:51.262Z,988.46
2018-04-30T07:26:51.266Z,988.39
2018-04-30T07:27:51.378Z,988.45
2018-04-30T07:28:51.268Z,988.42
2018-04-30T07:29:51.347Z,988.44
2018-04-30T07:30:51.267Z,988.49
2018-04-30T07:31:51.267Z,988.57
2018-04-30T07:32:51.264Z,988.54
2018-04-30T07:33:51.336Z,988.49
2018-04-30T07:34:51.338Z,988.56
2018-04-30T07:35:51.272Z,988.59
2018-04-30T07:36:51.337Z,988.56
2018-04-30T07:37:51.274Z,988.57
2018-04-30T07:38:51.340Z,988.53
2018-04-30T07:39:51.343Z,988.61
2018-04-30T07:40:51.273Z,988.62
2018-04-30T07:41:51.197Z,988.66
2018-04-30T07:42:51.293Z,988.79
2018-04-30T07:43:51.291Z,988.67
2018-04-30T07:44:51.278Z,988.64
2018-04-30T07:45:51.251Z,988.67
2018-04-30T07:46:51.254Z,988.69
2018-04-30T07:47:51.243Z,988.68
2018-04-30T07:48:51.300Z,988.64
2018-04-30T07:49:51.294Z,988.78
2018-04-30T07:50:51.247Z,988.72
2018-04-30T07:51:51.308Z,988.72
2018-04-30T07:52:51.280Z,988.76
2018-04-30T07:53:51.279Z,988.74
2018-04-30T07:54:51.370Z,988.71
2018-04-30T07:55:51.281Z,988.74
2018-04-30T07:56:51.351Z,988.78
2018-04-30T07:57:51.350Z,988.76
2018-04-30T07:58:51.315Z,988.80
2018-04-30T07:59:51.296Z,988.82
2018-04-30T08:00:51.283Z,988.73
2018-04-30T08:01:51.253Z,988.81
2018-04-30T08:02:51.321Z,988.78
2018-04-30T08:03:51.375Z,988.84
2018-04-30T08:04:51.358Z,988.76
2018-04-30T08:05:51.353Z,988.84
2018-04-30T08:06:51.393Z,988.83
2018-04-30T08:07:51.377Z,988.87
2018-04-30T08:08:51.329Z,988.80
2018-04-30T08:09:51.388Z,988.87
2018-04-30T08:10:51.386Z,988.98
2018-04-30T08:11:51.346Z,988.95
2018-04-30T08:12:51.377Z,988.96
2018-04-30T08:13:51.323Z,988.98
2018-04-30T08:14:51.496Z,988.96
2018-04-30T08:15:51.365Z,988.98
2018-04-30T08:16:51.383Z,989.01
2018-04-30T08:17:51.265Z,989.00
2018-04-30T08:18:51.335Z,989.02
2018-04-30T08:19:51.395Z,988.99
2018-04-30T08:20:51.264Z,988.98
2018-04-30T08:21:51.291Z,989.01
2018-04-30T08:22:51.405Z,989.06
2018-04-30T08:23:51.409Z,989.07
2018-04-30T08:24:51.404Z,989.04
2018-04-30T08:25:51.328Z,989.05
2018-04-30T08:26:51.409Z,989.09
2018-04-30T08:27:51.403Z,988.96
2018-04-30T08:28:51.333Z,989.10
2018-04-30T08:29:51.350Z,989.17
2018-04-30T08:30:51.268Z,989.11
2018-04-30T08:31:51.312Z,989.12
2018-04-30T08:32:51.238Z,989.12
2018-04-30T08:33:51.257Z,989.18
2018-04-30T08:34:51.280Z,989.15
2018-04-30T08:35:51.280Z,989.29
2018-04-30T08:36:51.358Z,989.25
2018-04-30T08:37:51.239Z,989.25
2018-04-30T08:38:51.279Z,989.33
2018-04-30T08:39:51.327Z,989.27
2018-04-30T08:40:51.264Z,989.37
2018-04-30T08:41:51.380Z,989.33
2018-04-30T08:42:51.352Z,989.21
2018-04-30T08:43:51.413Z,989.34
2018-04-30T08:44:51.453Z,989.32
2018-04-30T08:45:51.344Z,989.34
2018-04-30T08:46:51.411Z,989.32
2018-04-30T08:47:51.384Z,989.32
2018-04-30T08:48:51.362Z,989.30
2018-04-30T08:49:51.296Z,989.34
2018-04-30T08:50:51.380Z,989.39
2018-04-30T08:51:51.271Z,989.43
2018-04-30T08:52:51.258Z,989.42
2018-04-30T08:53:51.323Z,989.51
2018-04-30T08:54:51.370Z,989.40
2018-04-30T08:55:51.390Z,989.43
2018-04-30T08:56:51.369Z,989.45
2018-04-30T08:57:51.344Z,989.48
2018-04-30T08:58:51.312Z,989.52
2018-04-30T08:59:51.377Z,989.56
2018-04-30T09:00:51.327Z,989.58
2018-04-30T09:01:51.336Z,989.59
2018-04-30T09:02:51.387Z,989.49
2018-04-30T09:03:51.346Z,989.51
2018-04-30T09:04:51.348Z,989.56
2018-04-30T09:05:51.264Z,989.57
2018-04-30T09:06:51.285Z,989.65
2018-04-30T09:07:51.394Z,989.60
2018-04-30T09:08:51.263Z,989.69
2018-04-30T09:09:51.389Z,989.59
2018-04-30T09:10:51.395Z,989.47
2018-04-30T09:11:51.332Z,989.58
2018-04-30T09:12:51.335Z,989.51
2018-04-30T09:13:51.331Z,989.52
2018-04-30T09:14:51.417Z,989.49
2018-04-30T09:15:51.334Z,989.38
2018-04-30T09:16:51.346Z,989.47
2018-04-30T09:17:51.405Z,989.52
2018-04-30T09:18:51.344Z,989.54
2018-04-30T09:19:51.403Z,989.59
2018-04-30T09:20:51.333Z,989.62
2018-04-30T09:21:51.371Z,989.67
2018-04-30T09:22:51.399Z,989.72
2018-04-30T09:23:51.425Z,989.87
2018-04-30T09:24:51.442Z,989.96
2018-04-30T09:25:51.327Z,989.96
2018-04-30T09:26:51.445Z,989.98
2018-04-30T09:27:51.405Z,990.01
2018-04-30T09:28:51.315Z,989.99
2018-04-30T09:29:51.320Z,989.99
2018-04-30T09:30:51.317Z,989.99
2018-04-30T09:31:51.406Z,990.03
2018-04-30T09:32:51.315Z,990.13
2018-04-30T09:33:51.409Z,990.10
2018-04-30T09:34:51.401Z,990.24
2018-04-30T09:35:51.321Z,990.36
2018-04-30T09:36:51.408Z,990.30
2018-04-30T09:37:51.401Z,990.28
2018-04-30T09:38:51.334Z,990.39
2018-04-30T09:39:51.343Z,990.31
2018-04-30T09:40:51.335Z,990.35
2018-04-30T09:41:51.412Z,990.33
2018-04-30T09:42:51.317Z,990.30
2018-04-30T09:43:51.323Z,990.24
2018-04-30T09:44:51.286Z,990.18
2018-04-30T09:45:51.288Z,990.16
2018-04-30T09:46:51.325Z,990.14
2018-04-30T09:47:51.327Z,990.14
2018-04-30T09:48:51.409Z,990.20
2018-04-30T09:49:51.423Z,990.18
2018-04-30T09:50:51.417Z,990.23
2018-04-30T09:51:51.423Z,990.20
2018-04-30T09:52:51.425Z,990.21
2018-04-30T09:53:51.328Z,990.16
2018-04-30T09:54:51.465Z,990.14
2018-04-30T09:55:51.460Z,990.14
2018-04-30T09:56:51.392Z,990.21
2018-04-30T09:57:51.369Z,990.20
2018-04-30T09:58:51.396Z,990.22
2018-04-30T09:59:51.467Z,990.20
2018-04-30T10:00:51.399Z,990.20
2018-04-30T10:01:51.394Z,990.27
2018-04-30T10:02:51.431Z,990.28
2018-04-30T10:03:51.338Z,990.26
2018-04-30T10:04:51.431Z,990.26
2018-04-30T10:05:51.338Z,990.20
2018-04-30T10:06:51.433Z,990.15
2018-04-30T10:07:51.458Z,990.18
2018-04-30T10:08:51.347Z,990.14
2018-04-30T10:09:51.458Z,990.11
2018-04-30T10:10:51.346Z,990.10
2018-04-30T10:11:51.396Z,990.10
2018-04-30T10:12:51.336Z,989.99
2018-04-30T10:13:51.360Z,990.08
2018-04-30T10:14:51.402Z,990.13
2018-04-30T10:15:51.505Z,990.17
2018-04-30T10:16:51.442Z,990.23
2018-04-30T10:17:51.503Z,990.27
2018-04-30T10:18:51.440Z,990.19
2018-04-30T10:19:51.443Z,990.25
2018-04-30T10:20:51.466Z,990.24
2018-04-30T10:21:51.406Z,990.31
2018-04-30T10:22:51.465Z,990.23
2018-04-30T10:23:51.474Z,990.28
2018-04-30T10:24:51.346Z,990.31
2018-04-30T10:25:51.368Z,990.32
2018-04-30T10:26:51.421Z,990.37
2018-04-30T10:27:51.476Z,990.33
2018-04-30T10:28:51.477Z,990.27
2018-04-30T10:29:51.443Z,990.33
2018-04-30T10:30:51.448Z,990.34
2018-04-30T10:31:51.434Z,990.34
2018-04-30T10:32:51.432Z,990.38
2018-04-30T10:33:51.371Z,990.35
2018-04-30T10:34:51.371Z,990.31
2018-04-30T10:35:51.483Z,990.41
2018-04-30T10:36:51.491Z,990.36
2018-04-30T10:37:51.551Z,990.30
2018-04-30T10:38:51.421Z,990.29
2018-04-30T10:39:51.428Z,990.32
2018-04-30T10:40:51.424Z,990.37
2018-04-30T10:41:51.364Z,990.37
2018-04-30T10:42:51.455Z,990.51
2018-04-30T10:43:51.498Z,990.48
2018-04-30T10:44:51.477Z,990.52
2018-04-30T10:45:51.475Z,990.53
2018-04-30T10:46:51.401Z,990.58
2018-04-30T10:47:51.381Z,990.56
2018-04-30T10:48:51.493Z,990.62
2018-04-30T10:49:51.465Z,990.58
2018-04-30T10:50:51.460Z,990.61
2018-04-30T10:51:51.465Z,990.54
2018-04-30T10:52:51.487Z,990.55
2018-04-30T10:53:51.465Z,990.54
2018-04-30T10:54:51.434Z,990.52
2018-04-30T10:55:51.489Z,990.53
2018-04-30T10:56:51.498Z,990.51
2018-04-30T10:57:51.502Z,990.52
2018-04-30T10:58:51.500Z,990.53
2018-04-30T10:59:51.407Z,990.51
2018-04-30T11:00:51.478Z,990.53
2018-04-30T11:01:51.417Z,990.53
2018-04-30T11:02:51.470Z,990.53
2018-04-30T11:03:51.375Z,990.52
2018-04-30T11:04:51.466Z,990.56
2018-04-30T11:05:51.378Z,990.55
2018-04-30T11:06:51.461Z,990.52
2018-04-30T11:07:51.465Z,990.54
2018-04-30T11:08:51.467Z,990.57
2018-04-30T11:09:51.462Z,990.58
2018-04-30T11:10:51.361Z,990.57
2018-04-30T11:11:51.407Z,990.57
2018-04-30T11:12:51.475Z,990.55
2018-04-30T11:13:51.412Z,990.55
2018-04-30T11:14:51.412Z,990.54
2018-04-30T11:15:51.484Z,990.57
2018-04-30T11:16:51.415Z,990.46
2018-04-30T11:17:51.482Z,990.63
2018-04-30T11:18:51.477Z,990.57
2018-04-30T11:19:51.483Z,990.55
2018-04-30T11:20:51.468Z,990.61
2018-04-30T11:21:51.414Z,990.55
2018-04-30T11:22:51.417Z,990.54
2018-04-30T11:23:51.480Z,990.53
2018-04-30T11:24:51.482Z,990.52
2018-04-30T11:25:51.414Z,990.55
2018-04-30T11:26:51.482Z,990.63
2018-04-30T11:27:51.454Z,990.64
2018-04-30T11:28:51.422Z,990.62
2018-04-30T11:29:51.421Z,990.60
2018-04-30T11:30:51.421Z,990.63
2018-04-30T11:31:51.481Z,990.67
2018-04-30T11:32:51.487Z,990.66
2018-04-30T11:33:51.516Z,990.61
2018-04-30T11:34:51.398Z,990.63
2018-04-30T11:35:51.459Z,990.74
2018-04-30T11:36:51.538Z,990.77
2018-04-30T11:37:51.469Z,990.77
2018-04-30T11:38:51.527Z,990.74
2018-04-30T11:39:51.494Z,990.80
2018-04-30T11:40:51.460Z,990.79
2018-04-30T11:41:51.425Z,990.76
2018-04-30T11:42:51.422Z,990.82
2018-04-30T11:43:51.499Z,990.77
2018-04-30T11:44:51.431Z,990.76
2018-04-30T11:45:51.498Z,990.79
2018-04-30T11:46:51.431Z,990.75
2018-04-30T11:47:51.500Z,990.74
2018-04-30T11:48:51.498Z,990.77
2018-04-30T11:49:51.429Z,990.72
2018-04-30T11:50:51.500Z,990.81
2018-04-30T11:51:51.433Z,990.87
2018-04-30T11:52:51.474Z,990.73
2018-04-30T11:53:51.482Z,990.74
2018-04-30T11:54:51.385Z,990.82
2018-04-30T11:55:51.453Z,990.83
2018-04-30T11:56:51.478Z,990.90
2018-04-30T11:57:51.430Z,990.81
2018-04-30T11:58:51.366Z,990.90
2018-04-30T11:59:51.401Z,990.95
2018-04-30T12:00:51.518Z,990.86
2018-04-30T12:01:51.442Z,990.92
2018-04-30T12:02:51.465Z,990.91
2018-04-30T12:03:51.448Z,990.87
2018-04-30T12:04:51.515Z,990.95
2018-04-30T12:05:51.534Z,990.90
2018-04-30T12:06:51.540Z,990.91
2018-04-30T12:07:51.413Z,990.96
2018-04-30T12:08:51.554Z,990.88
2018-04-30T12:09:51.538Z,990.85
2018-04-30T12:10:51.434Z,990.93
2018-04-30T12:11:51.497Z,990.94
2018-04-30T12:12:51.468Z,990.79
2018-04-30T12:13:51.399Z,990.99
2018-04-30T12:14:51.381Z,990.89
2018-04-30T12:15:51.400Z,990.86
2018-04-30T12:16:51.500Z,990.87
2018-04-30T12:17:51.452Z,990.90
2018-04-30T12:18:51.420Z,990.92
2018-04-30T12:19:51.519Z,990.84
2018-04-30T12:20:51.427Z,990.90
2018-04-30T12:21:51.500Z,990.98
2018-04-30T12:22:51.480Z,990.98
2018-04-30T12:23:51.538Z,990.97
2018-04-30T12:24:51.530Z,990.95
2018-04-30T12:25:51.538Z,990.94
2018-04-30T12:26:51.553Z,991.06
2018-04-30T12:27:51.500Z,991.04
2018-04-30T12:28:51.424Z,991.10